Time;durP1;ratioP1;P1;durP2;ratioP2;P2;SDS_P1;SDS_P2;PMS_P1;PMS_P2;Temp;Humidity;BMP_temperature;BMP_pressure;BME280_temperature;BME280_humidity;BME280_pressure;Samples;Min_cycle;Max_cycle;Signal;HPM_P1;HPM_P2
2022/04/25 00:01:46;;;;;;;;;;;;;;;-145.06;0.00;60892.56;4729649;29;19966;-87
2022/04/25 00:04:25;;;;;;;;;;;;;;;-145.06;0.00;60892.56;4728917;29;19927;-86
2022/04/25 00:07:04;;;;;;;;;;;;;;;-145.06;0.00;60892.56;4732350;29;19923;-87
2022/04/25 00:09:43;;;;;;;;;;;;;;;-145.06;0.00;60892.56;4733638;29;19919;-87
2022/04/25 00:12:22;;;;;;;;;;;;;;;-145.06;0.00;60892.56;4731943;29;19934;-87
2022/04/25 00:15:01;;;;;;;;;;;;;;;-145.06;0.00;60892.56;4733269;29;20115;-87
2022/04/25 00:17:41;;;;;;;;;;;;;;;-145.06;0.00;60892.56;4752801;29;19919;-87
2022/04/25 00:20:20;;;;;;;;;;;;;;;-145.06;0.00;60892.56;4736590;29;19923;-87
2022/04/25 00:23:04;;;;;;;;;;;;;;;-145.06;0.00;60892.56;4731187;29;20263;-86
2022/04/25 00:25:43;;;;;;;;;;;;;;;-145.06;0.00;60892.56;4723877;29;19919;-87
2022/04/25 00:28:23;;;;;;;;;;;;;;;-145.06;0.00;60892.56;4735045;29;20277;-87
2022/04/25 00:31:02;;;;;;;;;;;;;;;-145.06;0.00;60892.56;4731352;29;20006;-86
2022/04/25 00:33:41;;;;;;;;;;;;;;;-145.06;0.00;60892.56;4773073;28;19911;-88
2022/04/25 00:36:20;;;;;;;;;;;;;;;-145.06;0.00;60892.56;4761215;28;19931;-86
2022/04/25 00:38:59;;;;;;;;;;;;;;;-145.06;0.00;60892.56;4754341;29;19922;-87
2022/04/25 00:41:38;;;;;;;;;;;;;;;-145.06;0.00;60892.56;4742606;29;19919;-87
2022/04/25 00:44:17;;;;;;;;;;;;;;;-145.06;0.00;60892.56;4739347;29;20368;-87
2022/04/25 00:46:56;;;;;;;;;;;;;;;-145.06;0.00;60892.56;4730484;29;19923;-88
2022/04/25 00:49:35;;;;;;;;;;;;;;;-145.06;0.00;60892.56;4756715;29;19919;-87
2022/04/25 00:52:13;;;;;;;;;;;;;;;-145.06;0.00;60892.56;4735703;29;19915;-87
2022/04/25 00:54:53;;;;;;;;;;;;;;;-145.06;0.00;60892.56;4732830;29;19919;-87
2022/04/25 00:57:32;;;;;;;;;;;;;;;-145.06;0.00;60892.56;4731114;29;19919;-87
2022/04/25 01:00:11;;;;;;;;;;;;;;;-145.06;0.00;60892.56;4733522;29;19923;-87
2022/04/25 01:02:50;;;;;;;;;;;;;;;-145.06;0.00;60892.56;4723388;29;19920;-86
2022/04/25 01:05:29;;;;;;;;;;;;;;;-145.06;0.00;60892.56;4741833;29;19963;-86
2022/04/25 01:08:08;;;;;;;;;;;;;;;-145.06;0.00;60892.56;4741155;29;19966;-87
2022/04/25 01:10:47;;;;;;;;;;;;;;;-145.06;0.00;60892.56;4731214;29;19919;-87
2022/04/25 01:13:26;;;;;;;;;;;;;;;-145.06;0.00;60892.56;4731538;29;19919;-86
2022/04/25 01:16:05;;;;;;;;;;;;;;;11.96;0.00;60892.56;4729982;29;19923;-87
2022/04/25 01:18:44;;;;;;;;;;;;;;;11.94;0.00;60892.56;4731333;29;19923;-88
2022/04/25 01:21:23;;;;;;;;;;;;;;;11.89;0.00;60892.56;4733204;29;19919;-86
2022/04/25 01:27:18;;;;;;;;;;;;;;;11.90;0.00;60892.56;4743058;29;20274;-86
2022/04/25 01:29:57;;;;;;;;;;;;;;;11.84;0.00;60892.56;4724906;29;19923;-87
2022/04/25 01:32:37;;;;;;;;;;;;;;;11.90;0.00;60892.56;4727005;29;19918;-88
2022/04/25 01:35:16;;;;;;;;;;;;;;;11.82;0.00;60892.56;4732684;29;20006;-87
2022/04/25 01:37:56;;;;;;;;;;;;;;;11.81;0.00;60892.56;4731763;29;19920;-87
2022/04/25 01:40:35;;;;;;;;;;;;;;;11.80;0.00;60892.56;4733598;29;19923;-88
2022/04/25 01:43:14;;;;;;;;;;;;;;;11.82;0.00;60892.56;4750646;29;19922;-87
2022/04/25 01:45:52;;;;;;;;;;;;;;;11.82;0.00;60892.56;4730884;29;20413;-87
2022/04/25 01:48:31;;;;;;;;;;;;;;;11.82;0.00;60892.56;4731867;29;19958;-87
2022/04/25 01:51:11;;;;;;;;;;;;;;;11.82;0.00;60892.56;4757452;29;19966;-86
2022/04/25 01:53:50;;;;;;;;;;;;;;;11.82;0.00;60892.56;4729216;29;19919;-86
2022/04/25 01:56:29;;;;;;;;;;;;;;;11.82;0.00;60892.56;4730449;29;19997;-88
2022/04/25 01:59:08;;;;;;;;;;;;;;;11.82;0.00;60892.56;4733700;29;19919;-87
2022/04/25 02:01:47;;;;;;;;;;;;;;;11.73;0.00;60892.56;4735129;29;19923;-87
2022/04/25 02:04:26;;;;;;;;;;;;;;;11.82;0.00;60892.56;4734811;29;20270;-87
2022/04/25 02:07:06;;;;;;;;;;;;;;;11.82;0.00;60892.56;4744745;29;19923;-86
2022/04/25 02:09:44;;;;;;;;;;;;;;;11.98;0.00;60892.56;4728835;29;19927;-87
2022/04/25 02:12:23;;;;;;;;;;;;;;;11.82;0.00;60892.56;4733243;29;20369;-85
2022/04/25 02:15:03;;;;;;;;;;;;;;;11.98;0.00;60892.56;4726790;29;19998;-86
2022/04/25 02:17:42;;;;;;;;;;;;;;;-145.06;0.00;60892.56;4727413;29;19923;-85
2022/04/25 02:20:21;;;;;;;;;;;;;;;-145.06;0.00;60892.56;4731361;29;19923;-85
2022/04/25 02:23:01;;;;;;;;;;;;;;;-145.06;0.00;60892.56;4731077;29;19919;-85
2022/04/25 02:25:40;;;;;;;;;;;;;;;-145.06;0.00;60892.56;4745235;29;19919;-85
2022/04/25 02:28:19;;;;;;;;;;;;;;;-145.06;0.00;60892.56;4732439;29;19974;-86
2022/04/25 02:30:58;;;;;;;;;;;;;;;-145.06;0.00;60892.56;4724288;29;19919;-86
2022/04/25 02:33:37;;;;;;;;;;;;;;;-145.06;0.00;60892.56;4723437;29;19931;-86
2022/04/25 02:36:17;;;;;;;;;;;;;;;-145.06;0.00;60892.56;4727529;29;19928;-86
2022/04/25 02:38:56;;;;;;;;;;;;;;;-145.06;0.00;60892.56;4719399;29;19919;-86
2022/04/25 02:41:35;;;;;;;;;;;;;;;-145.06;0.00;60892.56;4732119;29;19919;-86
2022/04/25 02:44:14;;;;;;;;;;;;;;;-145.06;0.00;60892.56;4730410;29;19923;-86
2022/04/25 02:46:53;;;;;;;;;;;;;;;-145.06;0.00;60892.56;4726710;29;19954;-86
2022/04/25 02:49:32;;;;;;;;;;;;;;;-145.06;0.00;60892.56;4731234;29;19918;-88
2022/04/25 02:52:11;;;;;;;;;;;;;;;-145.06;0.00;60892.56;4747742;29;19919;-87
2022/04/25 02:54:50;;;;;;;;;;;;;;;-145.06;0.00;60892.56;4743338;29;19923;-88
2022/04/25 02:57:29;;;;;;;;;;;;;;;-145.06;0.00;60892.56;4748587;29;19948;-87
2022/04/25 03:00:08;;;;;;;;;;;;;;;-145.06;0.00;60892.56;4738490;29;20262;-87
2022/04/25 03:02:47;;;;;;;;;;;;;;;-145.06;0.00;60892.56;4731980;29;19962;-87
2022/04/25 03:05:26;;;;;;;;;;;;;;;-145.06;0.00;60892.56;4756844;29;19919;-88
2022/04/25 03:08:05;;;;;;;;;;;;;;;-145.06;0.00;60892.56;4729661;29;19962;-88
2022/04/25 03:10:45;;;;;;;;;;;;;;;-145.06;0.00;60892.56;4730101;29;19923;-88
2022/04/25 03:13:24;;;;;;;;;;;;;;;-145.06;0.00;60892.56;4751073;29;19919;-88
2022/04/25 03:16:04;;;;;;;;;;;;;;;-145.06;0.00;60892.56;4751399;29;20389;-87
2022/04/25 03:18:42;;;;;;;;;;;;;;;-145.06;0.00;60892.56;4748405;29;20423;-88
2022/04/25 03:21:21;;;;;;;;;;;;;;;-145.06;0.00;60892.56;4745563;29;19915;-87
2022/04/25 03:24:02;;;;;;;;;;;;;;;-145.06;0.00;60892.56;4736298;29;20381;-87
2022/04/25 03:26:41;;;;;;;;;;;;;;;-145.06;0.00;60892.56;4732205;29;19927;-87
2022/04/25 03:29:20;;;;;;;;;;;;;;;-145.06;0.00;60892.56;4723341;29;20618;-88
2022/04/25 03:31:59;;;;;;;;;;;;;;;-145.06;0.00;60892.56;4742060;29;20377;-87
2022/04/25 03:34:38;;;;;;;;;;;;;;;-145.06;0.00;60892.56;4728148;29;19919;-88
2022/04/25 03:37:17;;;;;;;;;;;;;;;-145.06;0.00;60892.56;4730900;29;19958;-87
2022/04/25 03:39:57;;;;;;;;;;;;;;;-145.06;0.00;60892.56;4737733;29;19958;-88
2022/04/25 03:42:37;;;;;;;;;;;;;;;-145.06;0.00;60892.56;4732456;29;19927;-88
2022/04/25 03:45:18;;;;;;;;;;;;;;;-145.06;0.00;60892.56;4731008;29;19923;-88
2022/04/25 03:47:56;;;;;;;;;;;;;;;-145.06;0.00;60892.56;4727558;29;19923;-87
2022/04/25 03:50:36;;;;;;;;;;;;;;;-145.06;0.00;60892.56;4730856;29;19923;-88
2022/04/25 03:53:14;;;;;;;;;;;;;;;-145.06;0.00;60892.56;4745208;28;19927;-88
2022/04/25 03:58:52;;;;;;;;;;;;;;;-145.06;0.00;60892.56;4749386;29;19927;-88
2022/04/25 04:01:31;;;;;;;;;;;;;;;-145.06;0.00;60892.56;4737607;29;19919;-87
2022/04/25 04:04:11;;;;;;;;;;;;;;;-145.06;0.00;60892.56;4748185;29;19919;-87
2022/04/25 04:06:50;;;;;;;;;;;;;;;-145.06;0.00;60892.56;4723185;29;19927;-88
2022/04/25 04:09:49;;;;;;;;;;;;;;;-145.06;0.00;60892.56;4724093;29;19962;-87
2022/04/25 04:12:31;;;;;;;;;;;;;;;-145.06;0.00;60892.56;4726773;29;19919;-87
2022/04/25 04:15:13;;;;;;;;;;;;;;;-145.06;0.00;60892.56;4722654;29;19923;-87
2022/04/25 04:17:52;;;;;;;;;;;;;;;-145.06;0.00;60892.56;4730662;29;19951;-87
2022/04/25 04:20:31;;;;;;;;;;;;;;;10.67;0.00;60892.56;4748245;29;19919;-87
2022/04/25 04:23:10;;;;;;;;;;;;;;;10.67;0.00;60892.56;4734647;29;19919;-88
2022/04/25 04:25:50;;;;;;;;;;;;;;;10.67;0.00;60892.56;4727450;29;19958;-88
2022/04/25 04:28:29;;;;;;;;;;;;;;;10.64;0.00;60892.56;4738452;29;19962;-87
2022/04/25 04:31:08;;;;;;;;;;;;;;;10.64;0.00;60892.56;4720119;29;19919;-88
2022/04/25 04:33:47;;;;;;;;;;;;;;;10.64;0.00;60892.56;4734315;29;19962;-87
2022/04/25 04:36:26;;;;;;;;;;;;;;;10.64;0.00;60892.56;4729284;29;19919;-87
2022/04/25 04:39:05;;;;;;;;;;;;;;;10.60;0.00;60892.56;4729515;29;20330;-87
2022/04/25 04:41:45;;;;;;;;;;;;;;;21.08;0.00;60892.56;4726312;29;19922;-87
2022/04/25 04:44:24;;;;;;;;;;;;;;;187.52;0.00;60892.56;4750351;29;19919;-87
2022/04/25 04:47:03;;;;;;;;;;;;;;;10.56;0.00;60892.56;4741700;29;19923;-87
2022/04/25 04:49:42;;;;;;;;;;;;;;;10.54;0.00;60892.56;4732166;29;19919;-86
2022/04/25 04:52:21;;;;;;;;;;;;;;;10.52;0.00;60892.56;4725405;29;20001;-87
2022/04/25 04:55:00;;;;;;;;;;;;;;;10.52;0.00;60892.56;4729301;29;20711;-87
2022/04/25 04:57:39;;;;;;;;;;;;;;;10.47;0.00;60892.56;4731320;29;19923;-87
2022/04/25 05:00:19;;;;;;;;;;;;;;;-145.06;0.00;60892.56;4730054;29;19919;-88
2022/04/25 05:02:58;;;;;;;;;;;;;;;-145.06;0.00;60892.56;4730522;29;19919;-87
2022/04/25 05:05:37;;;;;;;;;;;;;;;-145.06;0.00;60892.56;4746756;29;19927;-87
2022/04/25 05:08:16;;;;;;;;;;;;;;;-145.06;0.00;60892.56;4729863;29;20038;-88
2022/04/25 05:10:55;;;;;;;;;;;;;;;-145.06;0.00;60892.56;4732144;29;20001;-87
2022/04/25 05:13:35;;;;;;;;;;;;;;;-145.06;0.00;60892.56;4734674;29;19919;-86
2022/04/25 05:16:14;;;;;;;;;;;;;;;-145.06;0.00;60892.56;4730167;29;19919;-87
2022/04/25 05:18:56;;;;;;;;;;;;;;;-145.06;0.00;60892.56;4728760;29;21817;-87
2022/04/25 05:21:36;;;;;;;;;;;;;;;-145.06;0.00;60892.56;4740836;29;20552;-88
2022/04/25 05:24:15;;;;;;;;;;;;;;;-145.06;0.00;60892.56;4731864;29;19923;-88
2022/04/25 05:26:54;;;;;;;;;;;;;;;-145.06;0.00;60892.56;4726991;29;19931;-88
2022/04/25 05:29:33;;;;;;;;;;;;;;;-145.06;0.00;60892.56;4727623;29;19919;-88
2022/04/25 05:32:12;;;;;;;;;;;;;;;-145.06;0.00;60892.56;4730061;29;19920;-87
2022/04/25 05:34:51;;;;;;;;;;;;;;;-145.06;0.00;60892.56;4755021;29;19919;-88
2022/04/25 05:37:30;;;;;;;;;;;;;;;-145.06;0.00;60892.56;4737490;29;20381;-87
2022/04/25 05:40:09;;;;;;;;;;;;;;;-145.06;0.00;60892.56;4731917;29;19919;-88
2022/04/25 05:42:49;;;;;;;;;;;;;;;-145.06;0.00;60892.56;4730261;29;19919;-88
2022/04/25 05:45:28;;;;;;;;;;;;;;;-145.06;0.00;60892.56;4752099;29;19919;-88
2022/04/25 05:51:58;;;;;;;;;;;;;;;-145.06;0.00;60892.56;4732858;29;19920;-87
2022/04/25 05:54:04;;;;;;;;;;;;;;;-145.06;0.00;60892.56;4746655;29;20262;-88
2022/04/25 05:56:43;;;;;;;;;;;;;;;-145.06;0.00;60892.56;4736696;29;20017;-88
2022/04/25 05:59:22;;;;;;;;;;;;;;;-145.06;0.00;60892.56;4730565;29;19922;-88
2022/04/25 06:02:01;;;;;;;;;;;;;;;-145.06;0.00;60892.56;4725663;29;19970;-87
2022/04/25 06:04:41;;;;;;;;;;;;;;;-145.06;0.00;60892.56;4719936;29;19923;-87
2022/04/25 06:07:20;;;;;;;;;;;;;;;-145.06;0.00;60892.56;4726696;29;19927;-87
2022/04/25 06:10:00;;;;;;;;;;;;;;;-145.06;0.00;60892.56;4722926;29;19923;-87
2022/04/25 06:12:43;;;;;;;;;;;;;;;-145.06;0.00;60892.56;4724933;29;20381;-88
2022/04/25 06:15:24;;;;;;;;;;;;;;;-145.06;0.00;60892.56;4740376;29;20203;-88
2022/04/25 06:18:04;;;;;;;;;;;;;;;-145.06;0.00;60892.56;4724012;29;19923;-87
2022/04/25 06:20:43;;;;;;;;;;;;;;;-145.06;0.00;60892.56;4724819;29;20361;-88
2022/04/25 06:23:22;;;;;;;;;;;;;;;-145.06;0.00;60892.56;4739659;29;19919;-87
2022/04/25 06:26:01;;;;;;;;;;;;;;;-145.06;0.00;60892.56;4729108;29;19923;-88
2022/04/25 06:28:41;;;;;;;;;;;;;;;-145.06;0.00;60892.56;4722633;29;19931;-87
2022/04/25 06:31:22;;;;;;;;;;;;;;;-145.06;0.00;60892.56;4725503;29;20524;-88
2022/04/25 06:34:01;;;;;;;;;;;;;;;-145.06;0.00;60892.56;4722990;29;20006;-88
2022/04/25 06:36:41;;;;;;;;;;;;;;;-145.06;0.00;60892.56;4729360;29;19927;-88
2022/04/25 06:39:20;;;;;;;;;;;;;;;-145.06;0.00;60892.56;4724296;29;20394;-88
2022/04/25 06:42:00;;;;;;;;;;;;;;;-145.06;0.00;60892.56;4729746;29;19927;-87
2022/04/25 06:44:38;;;;;;;;;;;;;;;10.36;0.00;60892.56;4727455;29;19923;-88
2022/04/25 06:47:18;;;;;;;;;;;;;;;-145.06;0.00;60892.56;4726303;29;19931;-88
2022/04/25 06:49:57;;;;;;;;;;;;;;;-145.06;0.00;60892.56;4741419;29;19946;-87
2022/04/25 06:52:35;;;;;;;;;;;;;;;-145.06;0.00;60892.56;4725516;29;19927;-87
2022/04/25 06:55:14;;;;;;;;;;;;;;;-145.06;0.00;60892.56;4730976;29;19919;-87
2022/04/25 06:57:54;;;;;;;;;;;;;;;-145.06;0.00;60892.56;4721001;29;19927;-87
2022/04/25 07:00:33;;;;;;;;;;;;;;;-145.06;0.00;60892.56;4728180;29;19928;-88
2022/04/25 07:03:12;;;;;;;;;;;;;;;-145.06;0.00;60892.56;4729438;29;19919;-88
2022/04/25 07:05:54;;;;;;;;;;;;;;;-145.06;0.00;60892.56;4732210;29;19919;-88
2022/04/25 07:08:33;;;;;;;;;;;;;;;-145.06;0.00;60892.56;4734424;29;19923;-87
2022/04/25 07:11:12;;;;;;;;;;;;;;;-145.06;0.00;60892.56;4770524;28;19911;-88
2022/04/25 07:13:51;;;;;;;;;;;;;;;-145.06;0.00;60892.56;4745037;29;19927;-88
2022/04/25 07:16:30;;;;;;;;;;;;;;;-145.06;0.00;60892.56;4751169;29;19923;-87
2022/04/25 07:19:09;;;;;;;;;;;;;;;-145.06;0.00;60892.56;4740271;29;19916;-87
2022/04/25 07:30:41;;;;;;;;;;;;;;;-145.06;0.00;60892.56;4739830;29;20093;-87
2022/04/25 07:33:20;;;;;;;;;;;;;;;-145.06;0.00;60892.56;4749379;29;20388;-87
2022/04/25 07:35:59;;;;;;;;;;;;;;;-145.06;0.00;60892.56;4732154;29;20002;-87
2022/04/25 07:38:39;;;;;;;;;;;;;;;-145.06;0.00;60892.56;4747383;29;20453;-87
2022/04/25 07:41:18;;;;;;;;;;;;;;;-145.06;0.00;60892.56;4746047;29;19923;-86
2022/04/25 07:43:58;;;;;;;;;;;;;;;-145.06;0.00;60892.56;4738568;29;20010;-87
2022/04/25 07:46:40;;;;;;;;;;;;;;;-145.06;0.00;60892.56;4735065;29;20361;-87
2022/04/25 07:49:19;;;;;;;;;;;;;;;-145.06;0.00;60892.56;4732354;29;19919;-87
2022/04/25 07:51:59;;;;;;;;;;;;;;;187.52;0.00;60892.56;4756136;29;20350;-87
2022/04/25 07:54:38;;;;;;;;;;;;;;;-145.06;0.00;60892.56;4734419;29;19915;-87
2022/04/25 07:57:18;;;;;;;;;;;;;;;-145.06;0.00;60892.56;4744648;29;19962;-86
2022/04/25 07:59:57;;;;;;;;;;;;;;;-145.06;0.00;60892.56;4732503;29;19916;-87
2022/04/25 08:02:36;;;;;;;;;;;;;;;-145.06;0.00;60892.56;4729141;29;19919;-87
2022/04/25 08:05:16;;;;;;;;;;;;;;;-145.06;0.00;60892.56;4726630;29;19914;-87
2022/04/25 08:07:55;;;;;;;;;;;;;;;-145.06;0.00;60892.56;4773577;29;19919;-87
2022/04/25 08:10:34;;;;;;;;;;;;;;;-145.06;0.00;60892.56;4742196;29;19942;-88
2022/04/25 08:19:09;;;;;;;;;;;;;;;-145.06;0.00;60892.56;4740440;29;19975;-88
2022/04/25 08:21:48;;;;;;;;;;;;;;;-145.06;0.00;60892.56;4717084;29;19916;-87
2022/04/25 08:24:28;;;;;;;;;;;;;;;-145.06;0.00;60892.56;4727589;29;20486;-88
2022/04/25 08:27:07;;;;;;;;;;;;;;;-145.06;0.00;60892.56;4727885;29;19954;-87
2022/04/25 08:29:48;;;;;;;;;;;;;;;-145.06;0.00;60892.56;4730204;29;19915;-87
2022/04/25 08:32:27;;;;;;;;;;;;;;;-145.06;0.00;60892.56;4772390;29;19914;-88
2022/04/25 08:35:07;;;;;;;;;;;;;;;-145.06;0.00;60892.56;4752791;29;20010;-88
2022/04/25 08:37:45;;;;;;;;;;;;;;;-145.06;0.00;60892.56;4772403;29;19914;-87
2022/04/25 08:40:25;;;;;;;;;;;;;;;-145.06;0.00;60892.56;4733520;29;20370;-88
2022/04/25 08:43:05;;;;;;;;;;;;;;;-145.06;0.00;60892.56;4731809;29;19950;-88
2022/04/25 08:45:45;;;;;;;;;;;;;;;-145.06;0.00;60892.56;4728983;29;19958;-88
2022/04/25 08:48:25;;;;;;;;;;;;;;;-145.06;0.00;60892.56;4737967;29;20266;-87
2022/04/25 08:51:05;;;;;;;;;;;;;;;-145.06;0.00;60892.56;4730747;29;19919;-88
2022/04/25 08:53:44;;;;;;;;;;;;;;;-145.06;0.00;60892.56;4751382;29;20421;-88
2022/04/25 08:56:25;;;;;;;;;;;;;;;-145.06;0.00;60892.56;4717148;29;19915;-89
2022/04/25 08:59:07;;;;;;;;;;;;;;;-145.06;0.00;60892.56;4719876;29;20526;-87
2022/04/25 09:01:46;;;;;;;;;;;;;;;12.63;0.00;60892.56;4725948;29;19951;-89
2022/04/25 09:04:25;;;;;;;;;;;;;;;-145.06;0.00;60892.56;4728080;29;20022;-88
2022/04/25 09:07:04;;;;;;;;;;;;;;;-145.06;0.00;60892.56;4716207;29;20011;-88
2022/04/25 09:09:44;;;;;;;;;;;;;;;-145.06;0.00;60892.56;4715349;29;19919;-88
2022/04/25 09:12:22;;;;;;;;;;;;;;;-145.06;0.00;60892.56;4740673;29;19915;-88
2022/04/25 09:15:03;;;;;;;;;;;;;;;-145.06;0.00;60892.56;4733450;29;19979;-89
2022/04/25 09:17:42;;;;;;;;;;;;;;;-145.06;0.00;60892.56;4733507;29;20246;-88
2022/04/25 09:20:21;;;;;;;;;;;;;;;-145.06;0.00;60892.56;4732922;29;19970;-87
2022/04/25 09:23:00;;;;;;;;;;;;;;;-145.06;0.00;60892.56;4733473;29;19923;-89
2022/04/25 09:25:39;;;;;;;;;;;;;;;-145.06;0.00;60892.56;4732457;29;19915;-88
2022/04/25 09:28:19;;;;;;;;;;;;;;;-145.06;0.00;60892.56;4727990;29;20287;-88
2022/04/25 09:31:00;;;;;;;;;;;;;;;-145.06;0.00;60892.56;4733373;29;20442;-88
2022/04/25 09:33:39;;;;;;;;;;;;;;;-145.06;0.00;60892.56;4717904;29;19959;-89
2022/04/25 09:36:18;;;;;;;;;;;;;;;-145.06;0.00;60892.56;4733302;29;19915;-87
2022/04/25 09:38:57;;;;;;;;;;;;;;;-145.06;0.00;60892.56;4735541;29;19915;-88
2022/04/25 09:41:36;;;;;;;;;;;;;;;-145.06;0.00;60892.56;4736211;29;19959;-89
2022/04/25 09:44:15;;;;;;;;;;;;;;;-145.06;0.00;60892.56;4733556;29;20373;-88
2022/04/25 09:46:54;;;;;;;;;;;;;;;-145.06;0.00;60892.56;4737119;29;20540;-88
2022/04/25 09:49:33;;;;;;;;;;;;;;;-145.06;0.00;60892.56;4728369;29;20006;-88
2022/04/25 09:52:12;;;;;;;;;;;;;;;-145.06;0.00;60892.56;4738278;29;20010;-88
2022/04/25 09:54:51;;;;;;;;;;;;;;;13.03;0.00;60892.56;4723058;29;19916;-89
2022/04/25 09:57:30;;;;;;;;;;;;;;;13.13;0.00;60892.56;4737339;29;20046;-87
2022/04/25 10:00:10;;;;;;;;;;;;;;;13.19;0.00;60892.56;4729046;29;19958;-87
2022/04/25 10:02:48;;;;;;;;;;;;;;;-145.06;0.00;60892.56;4718158;29;20365;-87
2022/04/25 10:05:40;;;;;;;;;;;;;;;-145.06;0.00;60892.56;4714732;29;20540;-89
2022/04/25 10:08:19;;;;;;;;;;;;;;;-145.06;0.00;60892.56;4715632;29;20419;-87
2022/04/25 10:10:59;;;;;;;;;;;;;;;-145.06;0.00;60892.56;4714227;29;20006;-89
2022/04/25 10:13:38;;;;;;;;;;;;;;;-145.06;0.00;60892.56;4714597;29;19916;-88
2022/04/25 10:16:20;;;;;;;;;;;;;;;-145.06;0.00;60892.56;4729614;29;20002;-87
2022/04/25 10:18:59;;;;;;;;;;;;;;;-145.06;0.00;60892.56;4735973;29;20003;-88
2022/04/25 10:21:38;;;;;;;;;;;;;;;-145.06;0.00;60892.56;4718038;29;20001;-89
2022/04/25 10:24:20;;;;;;;;;;;;;;;-145.06;0.00;60892.56;4723377;29;19919;-87
2022/04/25 10:27:07;;;;;;;;;;;;;;;-145.06;0.00;60892.56;4734366;29;19919;-88
2022/04/25 10:29:49;;;;;;;;;;;;;;;-145.06;0.00;60892.56;4740051;29;20369;-87
2022/04/25 10:32:29;;;;;;;;;;;;;;;-145.06;0.00;60892.56;4741801;29;19962;-88
2022/04/25 10:35:15;;;;;;;;;;;;;;;-145.06;0.00;60892.56;4754494;29;19946;-88
2022/04/25 10:37:54;;;;;;;;;;;;;;;-145.06;0.00;60892.56;4738819;28;19915;-89
2022/04/25 10:44:10;;;;;;;;;;;;;;;-145.06;0.00;60892.56;4744132;29;19927;-89
2022/04/25 10:46:57;;;;;;;;;;;;;;;-145.06;0.00;60892.56;4763869;29;19994;-88
2022/04/25 10:49:37;;;;;;;;;;;;;;;-145.06;0.00;60892.56;4723083;29;19923;-87
2022/04/25 10:52:43;;;;;;;;;;;;;;;-145.06;0.00;60892.56;4732679;29;19919;-88
2022/04/25 10:55:34;;;;;;;;;;;;;;;-145.06;0.00;60892.56;4725076;29;20018;-87
2022/04/25 10:58:14;;;;;;;;;;;;;;;-145.06;0.00;60892.56;4722003;29;19915;-88
2022/04/25 11:00:54;;;;;;;;;;;;;;;-145.06;0.00;60892.56;4725665;29;19919;-89
2022/04/25 11:03:33;;;;;;;;;;;;;;;-145.06;0.00;60892.56;4731917;29;19915;-88
2022/04/25 11:06:23;;;;;;;;;;;;;;;-145.06;0.00;60892.56;4726678;29;19923;-88
2022/04/25 11:09:02;;;;;;;;;;;;;;;-145.06;0.00;60892.56;4735479;29;19918;-88
2022/04/25 11:11:48;;;;;;;;;;;;;;;-145.06;0.00;60892.56;4723322;29;19915;-88
2022/04/25 11:14:29;;;;;;;;;;;;;;;-145.06;0.00;60892.56;4731514;29;19915;-87
2022/04/25 11:17:12;;;;;;;;;;;;;;;-145.06;0.00;60892.56;4725115;29;19915;-89
2022/04/25 11:19:53;;;;;;;;;;;;;;;-145.06;0.00;60892.56;4721974;29;19955;-88
2022/04/25 11:22:36;;;;;;;;;;;;;;;-145.06;0.00;60892.56;4719758;29;19919;-88
2022/04/25 11:25:27;;;;;;;;;;;;;;;-145.06;0.00;60892.56;4730191;29;20270;-89
2022/04/25 11:28:07;;;;;;;;;;;;;;;-145.06;0.00;60892.56;4724902;29;20010;-88
2022/04/25 11:31:06;;;;;;;;;;;;;;;-145.06;0.00;60892.56;4727632;29;19915;-89
2022/04/25 11:33:46;;;;;;;;;;;;;;;-145.06;0.00;60892.56;4728679;29;19919;-88
2022/04/25 11:36:24;;;;;;;;;;;;;;;-145.06;0.00;60892.56;4722671;29;20463;-88
2022/04/25 11:42:09;;;;;;;;;;;;;;;-145.06;0.00;60892.56;4736749;29;19919;-87
2022/04/25 11:44:48;;;;;;;;;;;;;;;-145.06;0.00;60892.56;4744098;29;19923;-88
2022/04/25 11:47:29;;;;;;;;;;;;;;;-145.06;0.00;60892.56;4735634;29;19919;-88
2022/04/25 11:50:12;;;;;;;;;;;;;;;-145.06;0.00;60892.56;4733288;29;19914;-88
2022/04/25 11:52:52;;;;;;;;;;;;;;;-145.06;0.00;60892.56;4727841;29;19916;-87
2022/04/25 11:55:32;;;;;;;;;;;;;;;-145.06;0.00;60892.56;4719863;29;19916;-89
2022/04/25 11:58:11;;;;;;;;;;;;;;;-145.06;0.00;60892.56;4721605;29;20408;-88
2022/04/25 12:00:50;;;;;;;;;;;;;;;-145.06;0.00;60892.56;4719600;29;20014;-89
2022/04/25 12:03:30;;;;;;;;;;;;;;;-145.06;0.00;60892.56;4730102;29;19915;-88
2022/04/25 12:06:10;;;;;;;;;;;;;;;-145.06;0.00;60892.56;4732078;29;20361;-88
2022/04/25 12:17:44;;;;;;;;;;;;;;;-145.06;0.00;60892.56;4759412;29;19915;-88
2022/04/25 12:20:29;;;;;;;;;;;;;;;-145.06;0.00;60892.56;4731410;29;19915;-88
2022/04/25 12:23:10;;;;;;;;;;;;;;;-145.06;0.00;60892.56;4722724;29;20429;-87
2022/04/25 12:25:49;;;;;;;;;;;;;;;-145.06;0.00;60892.56;4728705;29;19915;-88
2022/04/25 12:28:37;;;;;;;;;;;;;;;-145.06;0.00;60892.56;4730230;29;19924;-89
2022/04/25 12:31:17;;;;;;;;;;;;;;;-145.06;0.00;60892.56;4745456;29;20345;-88
2022/04/25 12:34:04;;;;;;;;;;;;;;;-145.06;0.00;60892.56;4730091;29;20396;-89
2022/04/25 12:36:57;;;;;;;;;;;;;;;-145.06;0.00;60892.56;4730519;29;19915;-88
2022/04/25 12:39:36;;;;;;;;;;;;;;;-145.06;0.00;60892.56;4729775;29;19919;-90
2022/04/25 12:42:17;;;;;;;;;;;;;;;-145.06;0.00;60892.56;4729860;29;20361;-87
2022/04/25 12:44:57;;;;;;;;;;;;;;;-145.06;0.00;60892.56;4748149;29;19919;-89
2022/04/25 12:47:35;;;;;;;;;;;;;;;-145.06;0.00;60892.56;4730535;29;19919;-88
2022/04/25 12:50:15;;;;;;;;;;;;;;;-145.06;0.00;60892.56;4723327;29;19915;-89
2022/04/25 12:52:54;;;;;;;;;;;;;;;-145.06;0.00;60892.56;4756266;29;20604;-89
2022/04/25 12:55:46;;;;;;;;;;;;;;;15.88;0.00;60892.56;4719657;29;19915;-89
2022/04/25 12:58:25;;;;;;;;;;;;;;;-145.06;0.00;60892.56;4728956;29;19919;-89
2022/04/25 13:01:04;;;;;;;;;;;;;;;-145.06;0.00;60892.56;4733785;29;20477;-88
2022/04/25 13:04:02;;;;;;;;;;;;;;;-145.06;0.00;60892.56;4735270;29;19919;-88
2022/04/25 13:06:41;;;;;;;;;;;;;;;-145.06;0.00;60892.56;4732016;29;19915;-91
2022/04/25 13:09:20;;;;;;;;;;;;;;;-145.06;0.00;60892.56;4736156;29;19931;-89
2022/04/25 13:11:59;;;;;;;;;;;;;;;-145.06;0.00;60892.56;4727648;29;19915;-88
2022/04/25 13:14:38;;;;;;;;;;;;;;;-145.06;0.00;60892.56;4730720;29;19915;-86
2022/04/25 13:17:18;;;;;;;;;;;;;;;-145.06;0.00;60892.56;4730050;29;19994;-87
2022/04/25 13:19:57;;;;;;;;;;;;;;;-145.06;0.00;60892.56;4748321;29;19915;-88
2022/04/25 13:22:36;;;;;;;;;;;;;;;-145.06;0.00;60892.56;4728556;29;19923;-87
2022/04/25 13:25:23;;;;;;;;;;;;;;;-145.06;0.00;60892.56;4715782;29;19919;-87
2022/04/25 13:28:02;;;;;;;;;;;;;;;-145.06;0.00;60892.56;4737541;29;19919;-88
2022/04/25 13:30:41;;;;;;;;;;;;;;;-145.06;0.00;60892.56;4735117;29;20065;-88
2022/04/25 13:33:20;;;;;;;;;;;;;;;-145.06;0.00;60892.56;4731283;29;20420;-87
2022/04/25 13:35:59;;;;;;;;;;;;;;;-145.06;0.00;60892.56;4727786;29;19919;-88
2022/04/25 13:38:38;;;;;;;;;;;;;;;-145.06;0.00;60892.56;4738099;29;19919;-88
2022/04/25 13:41:18;;;;;;;;;;;;;;;16.89;0.00;60892.56;4720401;29;19938;-87
2022/04/25 13:43:57;;;;;;;;;;;;;;;18.48;0.00;60892.56;4733526;29;20255;-88
2022/04/25 13:46:36;;;;;;;;;;;;;;;-145.06;0.00;60892.56;4732520;29;19919;-87
2022/04/25 13:49:16;;;;;;;;;;;;;;;17.10;0.00;60892.56;4730638;29;19923;-88
2022/04/25 13:51:57;;;;;;;;;;;;;;;-145.06;0.00;60892.56;4737478;29;19919;-88
2022/04/25 13:54:37;;;;;;;;;;;;;;;-145.06;0.00;60892.56;4752382;29;19949;-88
2022/04/25 13:57:16;;;;;;;;;;;;;;;-145.06;0.00;60892.56;4728088;29;19919;-88
2022/04/25 13:59:55;;;;;;;;;;;;;;;-145.06;0.00;60892.56;4738845;29;19915;-88
2022/04/25 14:05:39;;;;;;;;;;;;;;;-145.06;0.00;60892.56;4761675;29;19919;-89
2022/04/25 14:08:23;;;;;;;;;;;;;;;-145.06;0.00;60892.56;4766967;28;19935;-89
2022/04/25 14:11:05;;;;;;;;;;;;;;;-145.06;0.00;60892.56;4757598;28;19915;-89
2022/04/25 14:13:44;;;;;;;;;;;;;;;-145.06;0.00;60892.56;4758243;29;19923;-90
2022/04/25 14:16:25;;;;;;;;;;;;;;;-145.06;0.00;60892.56;4727708;29;19919;-89
2022/04/25 14:19:47;;;;;;;;;;;;;;;;;;;;;
2022/04/25 14:26:01;;;;;;;;;;;;;;;-145.06;0.00;60892.56;4751268;29;20656;-88
2022/04/25 14:31:55;;;;;;;;;;;;;;;-145.06;0.00;60892.56;4743929;29;20370;-88
2022/04/25 14:37:44;;;;;;;;;;;;;;;-145.06;0.00;60892.56;4737057;29;20506;-89
2022/04/25 14:40:28;;;;;;;;;;;;;;;-145.06;0.00;60892.56;4731567;29;19919;-89
2022/04/25 14:43:39;;;;;;;;;;;;;;;;;;;;;